Time;durP1;ratioP1;P1;durP2;ratioP2;P2;SDS_P1;SDS_P2;PMS_P1;PMS_P2;Temp;Humidity;BMP_temperature;BMP_pressure;BME280_temperature;BME280_humidity;BME280_pressure;Samples;Min_cycle;Max_cycle;Signal;HPM_P1;HPM_P2
2023/05/31 00:01:00;;;;;;;4.32;2.40;;;16.10;99.90;;;;;;4970990;28;20220;-74
2023/05/31 00:03:31;;;;;;;4.43;2.33;;;16.30;99.90;;;;;;4977598;28;20578;-74
2023/05/31 00:06:04;;;;;;;4.28;2.08;;;16.30;99.90;;;;;;4977429;28;20202;-74
2023/05/31 00:08:35;;;;;;;5.10;2.63;;;16.40;99.90;;;;;;4977223;28;20193;-74
2023/05/31 00:11:07;;;;;;;3.97;2.55;;;16.50;99.90;;;;;;4977090;28;20555;-74
2023/05/31 00:13:38;;;;;;;4.15;2.30;;;16.60;99.90;;;;;;4975482;28;20226;-74
2023/05/31 00:16:10;;;;;;;4.43;1.98;;;16.80;99.90;;;;;;4975655;28;20618;-74
2023/05/31 00:18:41;;;;;;;4.63;2.00;;;16.80;99.90;;;;;;4973520;28;20204;-74
2023/05/31 00:21:14;;;;;;;3.78;1.85;;;17.00;99.90;;;;;;4976058;28;20220;-74
2023/05/31 00:23:45;;;;;;;4.40;1.83;;;17.00;99.90;;;;;;4976185;28;20204;-75
2023/05/31 00:26:16;;;;;;;5.35;2.15;;;17.10;99.90;;;;;;4976888;28;20196;-74
2023/05/31 00:28:47;;;;;;;3.47;1.98;;;17.20;99.90;;;;;;4976947;28;20192;-73
2023/05/31 00:31:18;;;;;;;3.25;1.88;;;17.30;99.90;;;;;;4976713;28;20218;-73
2023/05/31 00:33:49;;;;;;;5.80;2.60;;;17.40;99.90;;;;;;4975722;28;20580;-73
2023/05/31 00:36:22;;;;;;;3.67;1.90;;;17.40;99.90;;;;;;4974856;28;20207;-74
2023/05/31 00:38:53;;;;;;;3.28;1.90;;;17.50;99.90;;;;;;4974153;28;20222;-74
2023/05/31 00:41:25;;;;;;;3.60;1.70;;;17.60;99.90;;;;;;4974242;28;20222;-74
2023/05/31 00:43:57;;;;;;;5.45;1.98;;;17.70;99.90;;;;;;4972206;28;20200;-74
2023/05/31 00:46:30;;;;;;;4.53;1.75;;;17.80;99.90;;;;;;4969287;28;20200;-74
2023/05/31 00:49:02;;;;;;;2.35;1.50;;;18.00;99.90;;;;;;4967569;28;20196;-74
2023/05/31 00:51:37;;;;;;;6.22;1.48;;;18.10;99.90;;;;;;4962078;28;20655;-74
2023/05/31 00:54:10;;;;;;;4.82;1.90;;;18.30;99.90;;;;;;4972678;28;20195;-73
2023/05/31 00:56:42;;;;;;;2.38;1.55;;;18.40;99.90;;;;;;4974285;28;20555;-74
2023/05/31 00:59:14;;;;;;;1.85;1.15;;;18.50;99.90;;;;;;4975403;28;20274;-73
2023/05/31 01:01:45;;;;;;;2.85;1.10;;;18.60;99.90;;;;;;4972293;28;20220;-74
2023/05/31 01:04:16;;;;;;;2.65;1.00;;;18.80;99.90;;;;;;4974231;28;20218;-74
2023/05/31 01:06:49;;;;;;;1.08;0.70;;;18.80;99.90;;;;;;4980392;28;20197;-74
2023/05/31 01:09:21;;;;;;;2.13;1.02;;;18.80;99.90;;;;;;4976157;28;20259;-75
2023/05/31 01:12:02;;;;;;;2.88;0.95;;;18.90;99.90;;;;;;4976027;28;20211;-75
2023/05/31 01:14:43;;;;;;;1.42;0.80;;;18.90;99.90;;;;;;4973360;28;20547;-75
2023/05/31 01:17:29;;;;;;;1.40;0.80;;;18.90;99.90;;;;;;4976049;28;20212;-75
2023/05/31 01:20:08;;;;;;;1.45;0.85;;;19.00;99.90;;;;;;4975936;28;20220;-74
2023/05/31 01:23:07;;;;;;;1.98;0.95;;;19.10;99.90;;;;;;4975427;28;20204;-75
2023/05/31 01:26:12;;;;;;;1.60;0.90;;;19.30;99.90;;;;;;4973571;28;20207;-75
2023/05/31 01:28:47;;;;;;;4.68;1.58;;;19.30;99.90;;;;;;4958363;28;21489;-75
2023/05/31 01:31:23;;;;;;;4.07;1.63;;;19.40;99.90;;;;;;4975684;28;20611;-75
2023/05/31 01:33:54;;;;;;;1.67;1.00;;;19.50;99.90;;;;;;4972218;28;20210;-74
2023/05/31 01:36:25;;;;;;;1.60;0.88;;;19.60;99.90;;;;;;4975397;28;20200;-75
2023/05/31 01:38:56;;;;;;;1.58;0.80;;;19.70;99.90;;;;;;4975475;28;20203;-75
2023/05/31 01:41:29;;;;;;;1.25;0.82;;;19.70;99.90;;;;;;4975456;28;20224;-75
2023/05/31 01:44:03;;;;;;;2.53;0.90;;;19.80;99.90;;;;;;4974678;28;20203;-75
2023/05/31 01:46:34;;;;;;;0.77;0.77;;;19.90;99.90;;;;;;4975180;28;20652;-74
2023/05/31 01:49:06;;;;;;;15.45;4.13;;;20.10;99.90;;;;;;4977173;28;20207;-75
2023/05/31 01:51:40;;;;;;;2.67;1.00;;;20.10;99.90;;;;;;4972492;28;20200;-74
2023/05/31 01:54:11;;;;;;;0.70;0.70;;;20.10;99.90;;;;;;4978612;28;20196;-73
2023/05/31 01:56:44;;;;;;;0.93;0.80;;;20.10;99.90;;;;;;4973447;28;20242;-74
2023/05/31 01:59:18;;;;;;;1.60;1.00;;;20.10;99.90;;;;;;4972044;28;20244;-74
2023/05/31 02:01:50;;;;;;;1.52;1.17;;;19.90;99.90;;;;;;4974068;28;20746;-75
2023/05/31 02:04:22;;;;;;;1.83;1.05;;;19.80;99.90;;;;;;4973840;28;20211;-73
2023/05/31 02:06:53;;;;;;;2.03;0.90;;;19.70;99.90;;;;;;4961375;28;20204;-74
2023/05/31 02:09:24;;;;;;;1.83;1.00;;;19.60;99.90;;;;;;4969610;28;20200;-75
2023/05/31 02:11:55;;;;;;;1.38;0.88;;;19.50;99.90;;;;;;4964712;28;20204;-74
2023/05/31 02:14:28;;;;;;;1.70;1.00;;;19.50;99.90;;;;;;4973881;28;20203;-73
2023/05/31 02:17:00;;;;;;;4.10;1.10;;;19.50;99.90;;;;;;4973943;28;20669;-73
2023/05/31 02:19:31;;;;;;;2.97;1.00;;;19.40;99.90;;;;;;4970959;28;20604;-74
2023/05/31 02:22:02;;;;;;;2.20;1.10;;;19.40;99.90;;;;;;4970298;28;20589;-73
2023/05/31 02:24:33;;;;;;;1.30;1.00;;;19.40;99.90;;;;;;4972382;28;20279;-74
2023/05/31 02:27:05;;;;;;;2.63;1.20;;;19.40;99.90;;;;;;4973735;28;20211;-75
2023/05/31 02:29:38;;;;;;;2.30;1.02;;;19.50;99.90;;;;;;4962013;28;20560;-74
2023/05/31 02:32:09;;;;;;;1.52;0.80;;;19.60;99.90;;;;;;4974463;28;20200;-74
2023/05/31 02:34:42;;;;;;;1.77;0.80;;;19.60;99.90;;;;;;4972658;28;20204;-75
2023/05/31 02:37:13;;;;;;;3.78;1.00;;;19.70;99.90;;;;;;4978182;28;20228;-74
2023/05/31 02:39:44;;;;;;;1.83;1.08;;;19.60;99.90;;;;;;4973992;28;20206;-75
2023/05/31 02:42:15;;;;;;;2.55;1.00;;;19.50;99.90;;;;;;4974264;28;20298;-75
2023/05/31 02:44:48;;;;;;;1.75;1.08;;;19.50;99.90;;;;;;4974513;28;20672;-74
2023/05/31 02:47:19;;;;;;;2.00;1.20;;;19.40;99.90;;;;;;4974351;28;20208;-74
2023/05/31 02:49:50;;;;;;;1.95;1.08;;;19.40;99.90;;;;;;4972512;28;20576;-73
2023/05/31 02:52:23;;;;;;;2.90;1.13;;;19.40;99.90;;;;;;4969566;28;20200;-74
2023/05/31 02:54:54;;;;;;;3.05;1.05;;;19.40;99.90;;;;;;4970084;28;20208;-73
2023/05/31 02:57:25;;;;;;;2.33;0.98;;;19.50;99.90;;;;;;4973950;28;20214;-75
2023/05/31 03:00:00;;;;;;;2.40;1.13;;;19.50;99.90;;;;;;4973712;28;20259;-75
2023/05/31 03:02:31;;;;;;;1.02;0.93;;;19.60;99.90;;;;;;4974025;28;20206;-75
2023/05/31 03:05:02;;;;;;;1.20;0.88;;;19.60;99.90;;;;;;4971613;28;20206;-74
2023/05/31 03:07:33;;;;;;;2.10;1.20;;;19.60;99.90;;;;;;4973436;28;20656;-75
2023/05/31 03:10:06;;;;;;;1.88;1.10;;;19.70;99.90;;;;;;4973754;28;20204;-75
2023/05/31 03:12:37;;;;;;;3.22;1.27;;;19.80;99.90;;;;;;4971234;28;20270;-74
2023/05/31 03:15:11;;;;;;;1.30;1.20;;;19.80;99.90;;;;;;4972158;28;20203;-74
2023/05/31 03:17:43;;;;;;;1.30;1.10;;;19.90;99.90;;;;;;4976516;28;20200;-74
2023/05/31 03:20:14;;;;;;;1.30;1.08;;;19.90;99.90;;;;;;4976638;28;20691;-74
2023/05/31 03:22:45;;;;;;;2.00;1.10;;;20.00;99.90;;;;;;4974914;28;20307;-75
2023/05/31 03:25:17;;;;;;;3.13;1.00;;;20.00;99.90;;;;;;4977151;28;20211;-74
2023/05/31 03:27:48;;;;;;;3.00;1.10;;;20.10;99.90;;;;;;4977671;28;20200;-74
2023/05/31 03:30:22;;;;;;;1.00;0.90;;;20.20;99.90;;;;;;4974842;28;20670;-75
2023/05/31 03:32:53;;;;;;;2.15;1.00;;;20.20;99.90;;;;;;4965269;28;20200;-75
2023/05/31 03:35:24;;;;;;;8.15;4.88;;;20.30;99.90;;;;;;4977583;28;20204;-75
2023/05/31 03:37:56;;;;;;;1.55;1.20;;;20.40;99.90;;;;;;4975942;28;20806;-74
2023/05/31 03:40:27;;;;;;;3.08;1.00;;;20.50;99.90;;;;;;4976549;28;20212;-75
2023/05/31 03:42:58;;;;;;;1.25;1.10;;;20.50;99.90;;;;;;4980030;28;20196;-75
2023/05/31 03:45:31;;;;;;;2.25;1.00;;;20.50;99.90;;;;;;4975306;28;20199;-74
2023/05/31 03:48:02;;;;;;;2.33;1.10;;;20.50;99.90;;;;;;4975119;28;20228;-75
2023/05/31 03:50:34;;;;;;;2.33;1.00;;;20.50;99.90;;;;;;4977273;28;20573;-75
2023/05/31 03:53:05;;;;;;;2.63;1.05;;;20.60;99.90;;;;;;4976323;28;20207;-75
2023/05/31 03:55:36;;;;;;;2.00;1.25;;;20.70;99.90;;;;;;4973023;28;20212;-75
2023/05/31 03:58:07;;;;;;;2.65;1.23;;;20.80;99.90;;;;;;4973515;28;20228;-75
2023/05/31 04:00:41;;;;;;;1.63;1.00;;;20.80;99.90;;;;;;4971431;28;20246;-75
2023/05/31 04:03:12;;;;;;;3.10;0.90;;;20.90;99.90;;;;;;4974985;28;20322;-74
2023/05/31 04:05:43;;;;;;;1.77;0.95;;;20.90;99.90;;;;;;4975853;28;20604;-75
2023/05/31 04:08:14;;;;;;;2.15;1.00;;;20.90;99.90;;;;;;4974473;28;20204;-73
2023/05/31 04:10:46;;;;;;;3.95;1.00;;;20.80;99.90;;;;;;4973600;28;20204;-74
2023/05/31 04:13:17;;;;;;;3.17;1.40;;;20.70;99.90;;;;;;4981560;28;20206;-74
2023/05/31 04:15:50;;;;;;;2.90;1.08;;;20.60;99.90;;;;;;4972677;28;20197;-74
2023/05/31 04:18:21;;;;;;;2.08;0.90;;;20.50;99.90;;;;;;4984235;28;20211;-74
2023/05/31 04:20:52;;;;;;;2.67;1.02;;;20.50;99.90;;;;;;4988652;28;20569;-74
2023/05/31 04:23:23;;;;;;;3.00;1.23;;;20.50;99.90;;;;;;4993257;28;20222;-75
2023/05/31 04:25:54;;;;;;;2.40;1.02;;;20.40;99.90;;;;;;4973002;28;20208;-73
2023/05/31 04:28:25;;;;;;;2.72;1.05;;;20.40;99.90;;;;;;4976862;28;20196;-74
2023/05/31 04:30:58;;;;;;;3.40;0.98;;;20.40;99.90;;;;;;4976482;28;20219;-74
2023/05/31 04:33:30;;;;;;;2.80;1.00;;;20.30;99.90;;;;;;4976121;28;20208;-74
2023/05/31 04:36:03;;;;;;;1.80;0.98;;;20.30;99.90;;;;;;4977095;28;20193;-74
2023/05/31 04:38:34;;;;;;;4.97;1.70;;;20.20;99.90;;;;;;4976641;28;20622;-74
2023/05/31 04:41:05;;;;;;;2.38;1.10;;;20.20;99.90;;;;;;4976580;28;20223;-73
2023/05/31 04:43:39;;;;;;;1.70;1.08;;;20.10;99.90;;;;;;4993145;28;20258;-73
2023/05/31 04:46:12;;;;;;;1.75;1.25;;;20.10;99.90;;;;;;4979123;28;20205;-73
2023/05/31 04:48:43;;;;;;;2.95;1.15;;;20.10;99.90;;;;;;4960432;28;20287;-74
2023/05/31 04:51:14;;;;;;;1.63;0.90;;;20.10;99.90;;;;;;4976474;28;20559;-73
2023/05/31 04:53:45;;;;;;;3.20;1.10;;;20.10;99.90;;;;;;4994453;28;20187;-74
2023/05/31 04:56:17;;;;;;;2.28;0.90;;;20.10;99.90;;;;;;4995822;28;20196;-73
2023/05/31 04:58:48;;;;;;;3.08;1.00;;;20.10;99.90;;;;;;4995293;28;20223;-73
2023/05/31 05:01:21;;;;;;;1.50;0.93;;;20.10;99.90;;;;;;4995676;28;20220;-73
2023/05/31 05:03:52;;;;;;;1.52;1.00;;;20.00;99.90;;;;;;4984557;28;20188;-73
2023/05/31 05:06:24;;;;;;;4.20;1.20;;;20.00;99.90;;;;;;4975556;28;20204;-73
2023/05/31 05:08:55;;;;;;;2.03;1.30;;;19.90;99.90;;;;;;4976347;28;20197;-73
2023/05/31 05:11:27;;;;;;;3.47;1.27;;;19.90;99.90;;;;;;4976189;28;20267;-73
2023/05/31 05:13:58;;;;;;;2.92;1.20;;;19.80;99.90;;;;;;4976335;28;20251;-73
2023/05/31 05:16:31;;;;;;;2.92;1.20;;;19.80;99.90;;;;;;4976023;28;20192;-73
2023/05/31 05:19:02;;;;;;;3.53;1.35;;;19.80;99.90;;;;;;4975963;28;20204;-73
2023/05/31 05:21:33;;;;;;;2.38;1.23;;;19.70;99.90;;;;;;4975911;28;20255;-73
2023/05/31 05:24:04;;;;;;;3.08;1.10;;;19.80;99.90;;;;;;4975230;28;20204;-73
2023/05/31 05:26:36;;;;;;;2.40;1.20;;;19.70;99.90;;;;;;4975917;28;20200;-73
2023/05/31 05:29:07;;;;;;;1.67;1.10;;;19.70;99.90;;;;;;4975572;28;20196;-73
2023/05/31 05:31:40;;;;;;;1.70;1.30;;;19.70;99.90;;;;;;4975804;28;20196;-74
2023/05/31 05:34:11;;;;;;;1.58;1.15;;;19.60;99.90;;;;;;4976808;28;20193;-73
2023/05/31 05:36:43;;;;;;;2.80;1.40;;;19.50;99.90;;;;;;4975800;28;20721;-73
2023/05/31 05:39:14;;;;;;;1.30;1.00;;;19.50;99.90;;;;;;4974992;28;20215;-73
2023/05/31 05:41:45;;;;;;;2.50;1.25;;;19.40;99.90;;;;;;4975183;28;20231;-73
2023/05/31 05:44:16;;;;;;;3.47;1.30;;;19.40;99.90;;;;;;4975437;28;20203;-74
2023/05/31 05:46:49;;;;;;;1.80;1.20;;;19.30;99.90;;;;;;4975555;28;20218;-73
2023/05/31 05:49:20;;;;;;;3.40;1.30;;;19.30;99.90;;;;;;4975446;28;20193;-73
2023/05/31 05:51:51;;;;;;;2.13;1.27;;;19.30;99.90;;;;;;4975463;28;20536;-73
2023/05/31 05:54:23;;;;;;;3.22;1.45;;;19.30;99.90;;;;;;4975486;28;20281;-73
2023/05/31 05:56:54;;;;;;;3.65;1.45;;;19.30;99.90;;;;;;4974559;28;20208;-73
2023/05/31 05:59:25;;;;;;;2.05;1.30;;;19.40;99.90;;;;;;4975373;28;20244;-73
2023/05/31 06:01:58;;;;;;;3.50;1.27;;;19.40;99.90;;;;;;4975278;28;20216;-73
2023/05/31 06:04:29;;;;;;;3.15;1.20;;;19.50;99.90;;;;;;4975374;28;20582;-73
2023/05/31 06:07:00;;;;;;;2.92;1.20;;;19.60;99.90;;;;;;4975237;28;20193;-74
2023/05/31 06:09:31;;;;;;;3.45;1.40;;;19.70;99.90;;;;;;4975159;28;20199;-74
2023/05/31 06:12:03;;;;;;;2.15;1.35;;;19.70;99.90;;;;;;4974958;28;20203;-75
2023/05/31 06:14:34;;;;;;;2.35;1.30;;;19.70;99.90;;;;;;4974422;28;20200;-73
2023/05/31 06:17:07;;;;;;;2.45;1.42;;;19.70;99.90;;;;;;4975563;28;20801;-74
2023/05/31 06:19:38;;;;;;;3.45;1.48;;;19.60;99.90;;;;;;4974899;28;20192;-73
2023/05/31 06:22:09;;;;;;;3.03;1.70;;;19.60;99.90;;;;;;4974924;28;20231;-73
2023/05/31 06:24:41;;;;;;;3.30;1.70;;;19.50;99.90;;;;;;4974911;28;20637;-74
2023/05/31 06:27:14;;;;;;;3.95;1.42;;;19.50;99.90;;;;;;4974971;28;20195;-74
2023/05/31 06:29:45;;;;;;;2.38;1.27;;;19.50;99.90;;;;;;4974756;28;20197;-73
2023/05/31 06:32:19;;;;;;;2.90;1.30;;;19.40;99.90;;;;;;4974042;28;20200;-74
2023/05/31 06:34:50;;;;;;;2.42;1.20;;;19.30;99.90;;;;;;4974715;28;20276;-73
2023/05/31 06:37:21;;;;;;;3.03;1.38;;;19.20;99.90;;;;;;4974683;28;20196;-74
2023/05/31 06:39:53;;;;;;;3.65;1.75;;;19.20;99.90;;;;;;4974586;28;20208;-74
2023/05/31 06:42:24;;;;;;;3.38;1.40;;;19.00;99.90;;;;;;4974424;28;20227;-73
2023/05/31 06:44:56;;;;;;;2.10;1.38;;;18.90;99.90;;;;;;4974648;28;20203;-73
2023/05/31 06:47:29;;;;;;;3.30;1.48;;;18.70;99.90;;;;;;4974399;28;20212;-73
2023/05/31 06:50:00;;;;;;;2.65;1.35;;;18.70;99.90;;;;;;4973614;28;20208;-73
2023/05/31 06:52:31;;;;;;;3.03;1.50;;;18.60;99.90;;;;;;4974583;28;20198;-73
2023/05/31 06:55:02;;;;;;;3.30;1.58;;;18.50;99.90;;;;;;4974968;28;20283;-73
2023/05/31 06:57:33;;;;;;;4.82;2.10;;;18.50;99.90;;;;;;4974458;28;20203;-73
2023/05/31 07:00:07;;;;;;;5.25;1.65;;;18.40;99.90;;;;;;4973157;28;20299;-74
2023/05/31 07:02:40;;;;;;;5.22;2.20;;;18.50;99.90;;;;;;4973982;28;20220;-73
2023/05/31 07:05:12;;;;;;;5.40;2.00;;;18.50;99.90;;;;;;4972335;28;20604;-74
2023/05/31 07:07:43;;;;;;;3.47;1.58;;;18.50;99.90;;;;;;4973363;28;20652;-73
2023/05/31 07:10:15;;;;;;;3.33;1.83;;;18.50;99.90;;;;;;4970550;28;20246;-73
2023/05/31 07:12:46;;;;;;;3.28;1.60;;;18.50;99.90;;;;;;4974467;28;20206;-73
2023/05/31 07:15:17;;;;;;;2.72;2.00;;;18.40;99.90;;;;;;4970500;28;20196;-74
2023/05/31 07:17:50;;;;;;;4.97;1.70;;;18.30;99.90;;;;;;4973173;28;20192;-73
2023/05/31 07:20:21;;;;;;;2.40;1.77;;;18.20;99.90;;;;;;4969537;28;20222;-73
2023/05/31 07:22:53;;;;;;;2.85;1.88;;;18.10;99.90;;;;;;4972819;28;20227;-72
2023/05/31 07:25:24;;;;;;;3.55;1.80;;;18.00;99.90;;;;;;4970963;28;20208;-73
2023/05/31 07:27:55;;;;;;;2.67;1.90;;;18.00;99.90;;;;;;4974153;28;20204;-72
2023/05/31 07:30:27;;;;;;;3.63;2.20;;;17.90;99.90;;;;;;4967639;28;20201;-73
2023/05/31 07:33:00;;;;;;;2.95;1.80;;;17.70;99.90;;;;;;4973559;28;20573;-73
2023/05/31 07:35:31;;;;;;;4.03;2.30;;;17.70;99.90;;;;;;4965451;28;20204;-73
2023/05/31 07:38:03;;;;;;;3.03;2.30;;;17.60;99.90;;;;;;4957216;28;20197;-73
2023/05/31 07:40:34;;;;;;;4.07;2.70;;;17.50;99.90;;;;;;4971195;28;20210;-74
2023/05/31 07:43:05;;;;;;;4.00;2.30;;;17.50;99.90;;;;;;4969967;28;20218;-73
2023/05/31 07:45:36;;;;;;;5.03;2.10;;;17.40;99.90;;;;;;4972670;28;20207;-73
2023/05/31 07:48:09;;;;;;;3.70;2.03;;;17.40;99.90;;;;;;4971671;28;20204;-74
2023/05/31 07:50:40;;;;;;;4.40;2.45;;;17.40;99.90;;;;;;4971493;28;20676;-74
2023/05/31 07:53:11;;;;;;;6.35;2.55;;;17.30;99.90;;;;;;4972458;28;20200;-74
2023/05/31 07:55:42;;;;;;;4.85;2.40;;;17.30;99.90;;;;;;4971681;28;20731;-73
2023/05/31 07:58:14;;;;;;;5.88;2.58;;;17.20;99.90;;;;;;4970556;28;20224;-73
2023/05/31 08:00:45;;;;;;;4.93;2.58;;;17.20;99.90;;;;;;4972612;28;20247;-73
2023/05/31 08:03:18;;;;;;;5.13;2.47;;;17.10;99.90;;;;;;4974414;28;20223;-74
2023/05/31 08:05:50;;;;;;;6.13;2.70;;;17.10;99.90;;;;;;4976120;28;20208;-73
2023/05/31 08:08:22;;;;;;;4.35;2.60;;;17.10;99.90;;;;;;4973991;28;20200;-72
2023/05/31 08:10:54;;;;;;;6.55;2.90;;;17.10;99.90;;;;;;4975608;28;20197;-73
2023/05/31 08:13:27;;;;;;;3.97;2.90;;;17.10;99.90;;;;;;4974540;28;20598;-73
2023/05/31 08:15:59;;;;;;;6.80;3.15;;;17.00;99.90;;;;;;4974968;28;20557;-72
2023/05/31 08:18:34;;;;;;;7.85;3.38;;;17.00;99.90;;;;;;4974183;28;20231;-73
2023/05/31 08:21:05;;;;;;;4.55;3.28;;;16.90;99.90;;;;;;4972969;28;20206;-73
2023/05/31 08:23:36;;;;;;;6.30;3.22;;;16.90;99.90;;;;;;4976511;28;20216;-73
2023/05/31 08:26:07;;;;;;;5.22;3.13;;;16.80;99.90;;;;;;4975198;28;20204;-72
2023/05/31 08:28:38;;;;;;;6.57;3.40;;;16.80;99.90;;;;;;4973443;28;20685;-72
2023/05/31 08:31:09;;;;;;;5.85;3.10;;;16.70;99.90;;;;;;4974604;28;20243;-73
2023/05/31 08:33:56;;;;;;;6.45;3.30;;;16.70;99.90;;;;;;4973567;28;20204;-73
2023/05/31 08:36:27;;;;;;;6.03;3.38;;;16.60;99.90;;;;;;4975459;28;20215;-73
2023/05/31 08:38:58;;;;;;;5.90;3.10;;;16.70;99.90;;;;;;4974692;28;20196;-73
2023/05/31 08:41:35;;;;;;;6.05;3.75;;;16.60;99.90;;;;;;4975203;28;20259;-73
2023/05/31 08:44:08;;;;;;;7.90;3.47;;;16.60;99.90;;;;;;4974461;28;20643;-73
2023/05/31 08:46:41;;;;;;;8.50;3.42;;;16.60;99.90;;;;;;4975503;28;20254;-72
2023/05/31 08:49:16;;;;;;;9.30;4.10;;;16.50;99.90;;;;;;4973091;28;20203;-72
2023/05/31 08:51:47;;;;;;;7.30;4.03;;;16.50;99.90;;;;;;4975393;28;20208;-72
2023/05/31 08:54:22;;;;;;;8.25;4.03;;;16.40;99.90;;;;;;4974852;28;20227;-73
2023/05/31 08:56:53;;;;;;;5.50;3.75;;;16.60;99.90;;;;;;4974930;28;20218;-73
2023/05/31 08:59:24;;;;;;;6.10;4.18;;;16.40;99.90;;;;;;4972833;28;20972;-73
2023/05/31 09:01:56;;;;;;;8.77;3.90;;;16.30;99.90;;;;;;4973954;28;20208;-72
2023/05/31 09:04:29;;;;;;;7.70;4.07;;;16.30;99.90;;;;;;4968073;28;20226;-73
2023/05/31 09:07:01;;;;;;;7.85;4.05;;;16.30;99.90;;;;;;4974101;28;20594;-73
2023/05/31 09:09:32;;;;;;;7.15;4.15;;;16.20;99.90;;;;;;4975160;28;20207;-72
2023/05/31 09:12:04;;;;;;;8.70;4.30;;;16.20;99.90;;;;;;4974560;28;20200;-73
2023/05/31 09:14:36;;;;;;;10.57;4.47;;;16.20;99.90;;;;;;4972910;28;20200;-73
2023/05/31 09:17:09;;;;;;;11.43;5.00;;;16.10;99.90;;;;;;4970454;28;20200;-73
2023/05/31 09:19:52;;;;;;;9.18;6.00;;;16.10;99.90;;;;;;4973264;28;20201;-73
2023/05/31 09:22:25;;;;;;;9.80;6.70;;;16.00;99.90;;;;;;4967119;28;20211;-74
2023/05/31 09:24:59;;;;;;;11.48;7.22;;;16.00;99.90;;;;;;4974035;28;20204;-73
2023/05/31 09:27:38;;;;;;;13.77;6.60;;;16.00;99.90;;;;;;4973383;28;20200;-73
2023/05/31 09:30:12;;;;;;;10.63;6.00;;;16.00;99.90;;;;;;4974246;28;20207;-73
2023/05/31 09:32:54;;;;;;;11.80;6.13;;;15.90;99.90;;;;;;4974568;28;20212;-72
2023/05/31 09:35:27;;;;;;;11.90;5.47;;;15.90;99.90;;;;;;4974145;28;20734;-74
2023/05/31 09:37:59;;;;;;;8.77;5.80;;;15.90;99.90;;;;;;4970908;28;20200;-72
2023/05/31 09:40:32;;;;;;;9.52;5.68;;;15.90;99.90;;;;;;4970953;28;20202;-73
2023/05/31 09:43:04;;;;;;;9.20;5.40;;;16.00;99.90;;;;;;4971452;28;20242;-73
2023/05/31 09:45:35;;;;;;;8.43;5.18;;;15.90;99.90;;;;;;4970646;28;20204;-73
2023/05/31 09:48:06;;;;;;;10.18;5.57;;;16.00;99.90;;;;;;4972628;28;20200;-73
2023/05/31 09:50:44;;;;;;;9.32;5.50;;;16.00;99.90;;;;;;4971489;28;20252;-72
2023/05/31 09:53:21;;;;;;;8.55;4.88;;;16.00;99.90;;;;;;4970157;28;20228;-73
2023/05/31 09:55:52;;;;;;;7.55;4.97;;;16.10;99.90;;;;;;4972728;28;20608;-73
2023/05/31 09:58:32;;;;;;;7.90;4.97;;;16.10;99.90;;;;;;4973357;28;20224;-72
2023/05/31 10:01:03;;;;;;;12.13;5.13;;;16.10;99.90;;;;;;4972942;28;20621;-73
2023/05/31 10:03:36;;;;;;;11.35;5.28;;;16.10;99.90;;;;;;4969507;28;20592;-72
2023/05/31 10:06:09;;;;;;;10.00;5.15;;;16.10;99.90;;;;;;4973561;28;20652;-72
2023/05/31 10:08:41;;;;;;;11.52;5.40;;;16.00;99.90;;;;;;4974227;28;20200;-72
2023/05/31 10:11:14;;;;;;;11.65;5.43;;;15.90;99.90;;;;;;4970011;28;20196;-72
2023/05/31 10:13:47;;;;;;;11.75;5.32;;;15.80;99.90;;;;;;4968995;28;20200;-72
2023/05/31 10:16:20;;;;;;;11.18;5.25;;;15.80;99.90;;;;;;4972311;28;20580;-72
2023/05/31 10:18:54;;;;;;;10.43;5.60;;;15.80;99.90;;;;;;4968914;28;20200;-72
2023/05/31 10:21:30;;;;;;;11.38;6.32;;;15.80;99.90;;;;;;4971157;28;20675;-72
2023/05/31 10:24:04;;;;;;;11.13;6.85;;;15.70;99.90;;;;;;4972771;28;20215;-72
2023/05/31 10:26:44;;;;;;;9.38;5.75;;;15.70;99.90;;;;;;4981213;28;20207;-72
2023/05/31 10:29:21;;;;;;;8.00;5.25;;;15.80;99.90;;;;;;4993010;28;20198;-72
2023/05/31 10:31:53;;;;;;;10.40;5.53;;;15.80;99.90;;;;;;4982621;28;20204;-73
2023/05/31 10:34:27;;;;;;;10.18;4.93;;;15.80;99.90;;;;;;4972904;28;20227;-72
2023/05/31 10:37:00;;;;;;;9.40;5.30;;;15.80;99.90;;;;;;4973085;28;20197;-72
2023/05/31 10:39:35;;;;;;;8.30;5.25;;;15.80;99.90;;;;;;4971636;28;20672;-73
2023/05/31 10:42:12;;;;;;;9.50;5.15;;;15.70;99.90;;;;;;4974498;28;20198;-73
2023/05/31 10:44:49;;;;;;;10.40;5.03;;;15.70;99.90;;;;;;4977048;28;20211;-73
2023/05/31 10:47:29;;;;;;;11.23;5.15;;;15.70;99.90;;;;;;4969732;28;20290;-74
2023/05/31 10:50:04;;;;;;;7.65;4.88;;;15.70;99.90;;;;;;4971911;28;20395;-72
2023/05/31 10:52:38;;;;;;;8.00;5.03;;;15.70;99.90;;;;;;4974143;28;20555;-72
2023/05/31 10:55:23;;;;;;;8.52;5.25;;;15.60;99.90;;;;;;4973661;28;20202;-72
2023/05/31 10:57:56;;;;;;;10.52;5.05;;;15.60;99.90;;;;;;4971967;28;20231;-72
2023/05/31 11:00:27;;;;;;;8.38;4.63;;;15.50;99.90;;;;;;4972814;28;20227;-72
2023/05/31 11:03:02;;;;;;;7.78;4.80;;;15.50;99.90;;;;;;4972739;28;20243;-73
2023/05/31 11:05:35;;;;;;;8.00;4.68;;;15.50;99.90;;;;;;4974463;28;20192;-72
2023/05/31 11:08:17;;;;;;;11.88;4.95;;;15.40;99.90;;;;;;4975423;28;20247;-73
2023/05/31 11:10:50;;;;;;;11.52;5.32;;;15.40;99.90;;;;;;4973453;28;20208;-73
2023/05/31 11:13:21;;;;;;;15.65;5.30;;;15.30;99.90;;;;;;4971656;28;20262;-72
2023/05/31 11:15:52;;;;;;;8.68;5.07;;;15.40;99.90;;;;;;4974703;28;20328;-72
2023/05/31 11:18:29;;;;;;;8.88;5.75;;;15.30;99.90;;;;;;4973293;28;20291;-73
2023/05/31 11:21:00;;;;;;;9.77;5.30;;;15.30;99.90;;;;;;4974369;28;20809;-72
2023/05/31 11:23:34;;;;;;;7.28;4.80;;;15.30;99.90;;;;;;4974268;28;20224;-72
2023/05/31 11:26:20;;;;;;;8.70;5.38;;;15.30;99.90;;;;;;4973731;28;20276;-72
2023/05/31 11:29:02;;;;;;;7.65;5.20;;;15.30;99.90;;;;;;4974255;28;20207;-72
2023/05/31 11:32:04;;;;;;;9.35;5.13;;;15.40;99.90;;;;;;4974122;28;20196;-72
2023/05/31 11:34:37;;;;;;;9.43;5.75;;;15.30;99.90;;;;;;4933583;29;20205;-73
2023/05/31 11:37:08;;;;;;;9.73;5.80;;;15.30;99.90;;;;;;4968420;28;20666;-72
2023/05/31 11:39:47;;;;;;;9.55;5.85;;;15.30;99.90;;;;;;4978277;28;20192;-72
2023/05/31 11:42:18;;;;;;;11.90;5.53;;;15.30;99.90;;;;;;4977337;28;20234;-72
2023/05/31 11:44:52;;;;;;;10.20;5.00;;;15.30;99.90;;;;;;4977598;28;20317;-73
2023/05/31 11:47:27;;;;;;;8.02;5.32;;;15.30;99.90;;;;;;4977739;28;20554;-73
2023/05/31 11:50:01;;;;;;;8.02;4.85;;;15.30;99.90;;;;;;4976688;28;20602;-73
2023/05/31 11:52:33;;;;;;;9.90;4.63;;;15.20;99.90;;;;;;4964845;28;20360;-73
2023/05/31 11:55:11;;;;;;;9.10;5.38;;;15.30;99.90;;;;;;4980693;28;20192;-73
2023/05/31 11:57:44;;;;;;;7.93;4.90;;;15.20;99.90;;;;;;4983501;28;20533;-73
2023/05/31 12:00:20;;;;;;;8.15;5.00;;;15.20;99.90;;;;;;4977114;28;20240;-73
2023/05/31 12:02:56;;;;;;;9.18;4.60;;;15.10;99.90;;;;;;4977673;28;20188;-73
2023/05/31 12:05:28;;;;;;;8.65;4.90;;;15.10;99.90;;;;;;4976809;28;20574;-72
2023/05/31 12:08:00;;;;;;;7.85;4.50;;;15.10;99.90;;;;;;4977326;28;20549;-73
2023/05/31 12:10:35;;;;;;;8.35;4.78;;;15.10;99.90;;;;;;4976527;28;20631;-73
2023/05/31 12:13:07;;;;;;;10.13;5.00;;;15.10;99.90;;;;;;4958688;28;20196;-72
2023/05/31 12:15:39;;;;;;;9.32;4.75;;;15.10;99.90;;;;;;4977129;28;20200;-74
2023/05/31 12:18:10;;;;;;;7.80;4.90;;;15.10;99.90;;;;;;4976696;28;20208;-73
2023/05/31 12:20:44;;;;;;;8.65;4.53;;;15.00;99.90;;;;;;4977316;28;20192;-72
2023/05/31 12:23:18;;;;;;;9.57;4.35;;;15.00;99.90;;;;;;4976619;28;20203;-72
2023/05/31 12:25:54;;;;;;;7.05;4.45;;;15.00;99.90;;;;;;4976429;28;20204;-73
2023/05/31 12:28:25;;;;;;;7.30;4.07;;;15.00;99.90;;;;;;4976894;28;20529;-73
2023/05/31 12:30:56;;;;;;;7.28;4.30;;;15.00;99.90;;;;;;4977080;28;20640;-73
2023/05/31 12:33:30;;;;;;;5.80;3.90;;;15.10;99.90;;;;;;4976473;28;20204;-72
2023/05/31 12:36:01;;;;;;;8.00;4.15;;;15.00;99.90;;;;;;4975573;28;20567;-73
2023/05/31 12:38:34;;;;;;;5.63;3.95;;;15.00;99.90;;;;;;4976985;28;20204;-73
2023/05/31 12:41:09;;;;;;;6.05;3.65;;;15.00;99.90;;;;;;4974711;28;20251;-73
2023/05/31 12:43:42;;;;;;;5.15;3.83;;;15.00;99.90;;;;;;4966733;28;20242;-73
2023/05/31 12:46:19;;;;;;;7.53;3.95;;;15.00;99.90;;;;;;4976086;28;20624;-72
2023/05/31 12:48:51;;;;;;;6.20;3.88;;;15.00;99.90;;;;;;4976796;28;20203;-73
2023/05/31 12:51:25;;;;;;;7.28;3.85;;;15.00;99.90;;;;;;4976746;28;20573;-72
2023/05/31 12:53:56;;;;;;;6.05;3.55;;;15.00;99.90;;;;;;4976664;28;20196;-73
2023/05/31 12:56:29;;;;;;;7.55;4.13;;;15.00;99.90;;;;;;4976724;28;20205;-72
2023/05/31 12:59:02;;;;;;;7.45;3.60;;;14.90;99.90;;;;;;4974419;28;20232;-73
2023/05/31 13:01:33;;;;;;;6.10;3.58;;;14.90;99.90;;;;;;4973597;28;20197;-73
2023/05/31 13:04:05;;;;;;;5.68;3.28;;;14.80;99.90;;;;;;4972722;28;20306;-74
2023/05/31 13:06:37;;;;;;;5.75;3.42;;;14.80;99.90;;;;;;4974809;28;20207;-72
2023/05/31 13:09:08;;;;;;;5.53;3.47;;;14.80;99.90;;;;;;4975684;28;20192;-74
2023/05/31 13:11:43;;;;;;;6.53;3.47;;;14.80;99.90;;;;;;4975332;28;20192;-73
2023/05/31 13:14:14;;;;;;;5.93;3.30;;;14.80;99.90;;;;;;4975263;28;20195;-72